Forside
METAR-TAF:

METAR-TAF

Lufthavne :

Tunis, Tunesien

Breddekreds: 36-50N, længdekreds: 010-14E, højde: 3 m

Aktuelle vejr

Denne rapport blev lavet for 25 minutter siden, kl. 13:00 UTC
Vind 10 kt fra sydvest
Temperatur 12°C
Fugtighed 67%
Tryk 1011 hPa
Sigt 10 km eller mere
Spredte skyer i en højde af 2600 ft, Optårnet Cumulus.
Brudte skyer i en højde af 4000 ft

METAR: DTTA 221300Z 23010KT 9999 SCT026TCU BKN040 12/06 Q1011 NOSIG

Tid: 14:25 (13:25 UTC)

Vejrudsigter

Denne rapport blev lavet for 2 timer og 25 minutter siden, kl. 11:00 UTC
Foreløbig gælder fra 22 på 12 UTC til 23 på 12 UTC
Vind 12 kt fra vestsydvest
Sigt 10 km eller mere
Spredte skyer i en højde af 2600 ft
Midlertidig
fra 22 på 12 UTC til 22 på 22 UTC
Sigt: 4000 m
Spredte skyer i en højde af 2600 ft, Optårnet Cumulus.
Nogle få skyer i en højde af 3000 ft, Cumulonimbus.
regn

TAF: DTTA 221100Z 2212/2312 24012KT 9999 SCT026 TEMPO 2212/2222 4000 RA SCT026TCU FEW030CB

Vejrobservationer og prognoser fra mere end 4000 lufthavne (METAR og TAF).

De gule og røde prikker repræsenterer de meteorologiske stationer.

Flyt musen over at se navnet på stationen.

Så klik over at se vejr observationer og prognoser.

At skifte det kort: Klik på de grønne knapper med et sort kors for at zoome ind; på den grønne knap med en bindestreg for at zoome ud; eller på de grønne pile for tilstødende kort.


METAR-TAF: